sensor_id;sensor_type;location;lat;lon;timestamp;P1;durP1;ratioP1;P2;durP2;ratioP2
54517;SDS011;40423;53.176;6.002;2023-07-30T00:01:47;18.55;;;8.13;;
54517;SDS011;40423;53.176;6.002;2023-07-30T00:04:13;20.45;;;7.30;;
54517;SDS011;40423;53.176;6.002;2023-07-30T00:06:39;22.08;;;7.18;;
54517;SDS011;40423;53.176;6.002;2023-07-30T00:09:04;18.50;;;6.90;;
54517;SDS011;40423;53.176;6.002;2023-07-30T00:11:30;21.80;;;8.32;;
54517;SDS011;40423;53.176;6.002;2023-07-30T00:13:56;24.17;;;6.75;;
54517;SDS011;40423;53.176;6.002;2023-07-30T00:16:21;24.85;;;7.82;;
54517;SDS011;40423;53.176;6.002;2023-07-30T00:18:47;29.95;;;8.68;;
54517;SDS011;40423;53.176;6.002;2023-07-30T00:21:13;20.50;;;7.90;;
54517;SDS011;40423;53.176;6.002;2023-07-30T00:23:38;20.80;;;7.45;;
54517;SDS011;40423;53.176;6.002;2023-07-30T00:26:04;23.88;;;7.70;;
54517;SDS011;40423;53.176;6.002;2023-07-30T00:28:30;22.23;;;7.20;;
54517;SDS011;40423;53.176;6.002;2023-07-30T00:30:55;22.85;;;8.02;;
54517;SDS011;40423;53.176;6.002;2023-07-30T00:33:21;19.23;;;6.70;;
54517;SDS011;40423;53.176;6.002;2023-07-30T00:35:47;24.77;;;8.57;;
54517;SDS011;40423;53.176;6.002;2023-07-30T00:38:15;23.38;;;7.63;;
54517;SDS011;40423;53.176;6.002;2023-07-30T00:40:41;21.75;;;6.93;;
54517;SDS011;40423;53.176;6.002;2023-07-30T00:43:07;24.10;;;7.43;;
54517;SDS011;40423;53.176;6.002;2023-07-30T00:45:32;22.23;;;7.28;;
54517;SDS011;40423;53.176;6.002;2023-07-30T00:47:59;22.27;;;7.05;;
54517;SDS011;40423;53.176;6.002;2023-07-30T00:50:25;23.35;;;8.25;;
54517;SDS011;40423;53.176;6.002;2023-07-30T00:52:51;23.38;;;8.40;;
54517;SDS011;40423;53.176;6.002;2023-07-30T00:55:17;24.92;;;7.75;;
54517;SDS011;40423;53.176;6.002;2023-07-30T00:57:43;24.40;;;7.63;;
54517;SDS011;40423;53.176;6.002;2023-07-30T01:00:10;21.48;;;7.20;;
54517;SDS011;40423;53.176;6.002;2023-07-30T01:02:36;27.30;;;8.07;;
54517;SDS011;40423;53.176;6.002;2023-07-30T01:05:02;22.52;;;7.68;;
54517;SDS011;40423;53.176;6.002;2023-07-30T01:07:29;24.20;;;7.40;;
54517;SDS011;40423;53.176;6.002;2023-07-30T01:09:58;28.00;;;8.23;;
54517;SDS011;40423;53.176;6.002;2023-07-30T01:12:25;28.08;;;8.10;;
54517;SDS011;40423;53.176;6.002;2023-07-30T01:14:52;34.17;;;9.00;;
54517;SDS011;40423;53.176;6.002;2023-07-30T01:17:21;24.23;;;7.32;;
54517;SDS011;40423;53.176;6.002;2023-07-30T01:19:47;33.47;;;8.55;;
54517;SDS011;40423;53.176;6.002;2023-07-30T01:22:19;31.23;;;8.30;;
54517;SDS011;40423;53.176;6.002;2023-07-30T01:24:45;27.35;;;7.68;;
54517;SDS011;40423;53.176;6.002;2023-07-30T01:27:13;28.85;;;7.43;;
54517;SDS011;40423;53.176;6.002;2023-07-30T01:29:53;26.10;;;7.35;;
54517;SDS011;40423;53.176;6.002;2023-07-30T01:32:25;19.83;;;6.82;;
54517;SDS011;40423;53.176;6.002;2023-07-30T01:34:54;23.02;;;7.38;;
54517;SDS011;40423;53.176;6.002;2023-07-30T01:37:21;24.77;;;6.88;;
54517;SDS011;40423;53.176;6.002;2023-07-30T01:39:48;22.30;;;6.63;;
54517;SDS011;40423;53.176;6.002;2023-07-30T01:42:15;24.58;;;7.25;;
54517;SDS011;40423;53.176;6.002;2023-07-30T01:44:41;19.17;;;6.25;;
54517;SDS011;40423;53.176;6.002;2023-07-30T01:47:07;24.70;;;6.95;;
54517;SDS011;40423;53.176;6.002;2023-07-30T01:49:33;24.35;;;6.85;;
54517;SDS011;40423;53.176;6.002;2023-07-30T01:51:58;22.70;;;7.35;;
54517;SDS011;40423;53.176;6.002;2023-07-30T01:54:24;22.00;;;6.38;;
54517;SDS011;40423;53.176;6.002;2023-07-30T01:56:51;22.63;;;6.32;;
54517;SDS011;40423;53.176;6.002;2023-07-30T01:59:18;24.08;;;6.10;;
54517;SDS011;40423;53.176;6.002;2023-07-30T02:01:44;28.40;;;7.15;;
54517;SDS011;40423;53.176;6.002;2023-07-30T02:04:09;29.15;;;6.95;;
54517;SDS011;40423;53.176;6.002;2023-07-30T02:06:35;26.08;;;6.43;;
54517;SDS011;40423;53.176;6.002;2023-07-30T02:09:01;29.25;;;6.78;;
54517;SDS011;40423;53.176;6.002;2023-07-30T02:11:27;28.40;;;7.70;;
54517;SDS011;40423;53.176;6.002;2023-07-30T02:13:53;29.17;;;7.55;;
54517;SDS011;40423;53.176;6.002;2023-07-30T02:16:19;28.67;;;7.32;;
54517;SDS011;40423;53.176;6.002;2023-07-30T02:18:45;25.73;;;6.97;;
54517;SDS011;40423;53.176;6.002;2023-07-30T02:21:12;22.33;;;6.72;;
54517;SDS011;40423;53.176;6.002;2023-07-30T02:23:37;29.63;;;7.93;;
54517;SDS011;40423;53.176;6.002;2023-07-30T02:26:03;24.73;;;7.28;;
54517;SDS011;40423;53.176;6.002;2023-07-30T02:28:29;27.13;;;6.65;;
54517;SDS011;40423;53.176;6.002;2023-07-30T02:30:54;29.85;;;7.30;;
54517;SDS011;40423;53.176;6.002;2023-07-30T02:33:20;28.60;;;7.82;;
54517;SDS011;40423;53.176;6.002;2023-07-30T02:35:46;22.10;;;5.68;;
54517;SDS011;40423;53.176;6.002;2023-07-30T02:38:11;25.02;;;7.43;;
54517;SDS011;40423;53.176;6.002;2023-07-30T02:40:37;25.20;;;6.55;;
54517;SDS011;40423;53.176;6.002;2023-07-30T02:43:03;27.55;;;7.65;;
54517;SDS011;40423;53.176;6.002;2023-07-30T02:45:29;26.27;;;6.72;;
54517;SDS011;40423;53.176;6.002;2023-07-30T02:47:54;23.88;;;5.80;;
54517;SDS011;40423;53.176;6.002;2023-07-30T02:50:20;28.05;;;6.78;;
54517;SDS011;40423;53.176;6.002;2023-07-30T02:52:46;23.17;;;6.07;;
54517;SDS011;40423;53.176;6.002;2023-07-30T02:55:12;25.35;;;7.25;;
54517;SDS011;40423;53.176;6.002;2023-07-30T02:57:37;17.50;;;5.80;;
54517;SDS011;40423;53.176;6.002;2023-07-30T03:00:03;22.30;;;5.80;;
54517;SDS011;40423;53.176;6.002;2023-07-30T03:02:29;21.75;;;5.93;;
54517;SDS011;40423;53.176;6.002;2023-07-30T03:04:55;26.83;;;6.82;;
54517;SDS011;40423;53.176;6.002;2023-07-30T03:07:21;22.15;;;6.75;;
54517;SDS011;40423;53.176;6.002;2023-07-30T03:09:47;24.00;;;6.57;;
54517;SDS011;40423;53.176;6.002;2023-07-30T03:12:13;20.08;;;7.28;;
54517;SDS011;40423;53.176;6.002;2023-07-30T03:14:39;28.52;;;7.20;;
54517;SDS011;40423;53.176;6.002;2023-07-30T03:17:04;25.35;;;5.70;;
54517;SDS011;40423;53.176;6.002;2023-07-30T03:19:30;17.38;;;5.30;;
54517;SDS011;40423;53.176;6.002;2023-07-30T03:21:56;23.13;;;6.68;;
54517;SDS011;40423;53.176;6.002;2023-07-30T03:24:22;18.70;;;5.35;;
54517;SDS011;40423;53.176;6.002;2023-07-30T03:26:48;16.90;;;5.32;;
54517;SDS011;40423;53.176;6.002;2023-07-30T03:29:14;23.00;;;6.00;;
54517;SDS011;40423;53.176;6.002;2023-07-30T03:31:40;18.38;;;5.13;;
54517;SDS011;40423;53.176;6.002;2023-07-30T03:34:06;19.40;;;6.00;;
54517;SDS011;40423;53.176;6.002;2023-07-30T03:36:31;19.70;;;6.22;;
54517;SDS011;40423;53.176;6.002;2023-07-30T03:38:57;22.42;;;5.95;;
54517;SDS011;40423;53.176;6.002;2023-07-30T03:41:23;27.42;;;6.18;;
54517;SDS011;40423;53.176;6.002;2023-07-30T03:43:49;20.83;;;5.78;;
54517;SDS011;40423;53.176;6.002;2023-07-30T03:46:14;26.45;;;6.00;;
54517;SDS011;40423;53.176;6.002;2023-07-30T03:48:40;18.38;;;5.40;;
54517;SDS011;40423;53.176;6.002;2023-07-30T03:51:06;23.60;;;6.05;;
54517;SDS011;40423;53.176;6.002;2023-07-30T03:53:32;18.23;;;5.38;;
54517;SDS011;40423;53.176;6.002;2023-07-30T03:55:58;15.18;;;4.90;;
54517;SDS011;40423;53.176;6.002;2023-07-30T03:58:24;17.92;;;4.70;;
54517;SDS011;40423;53.176;6.002;2023-07-30T04:00:49;17.13;;;4.93;;
54517;SDS011;40423;53.176;6.002;2023-07-30T04:03:15;14.05;;;5.22;;
54517;SDS011;40423;53.176;6.002;2023-07-30T04:05:41;14.35;;;5.18;;
54517;SDS011;40423;53.176;6.002;2023-07-30T04:08:06;15.95;;;5.30;;
54517;SDS011;40423;53.176;6.002;2023-07-30T04:10:32;20.10;;;4.68;;
54517;SDS011;40423;53.176;6.002;2023-07-30T04:12:58;22.45;;;5.47;;
54517;SDS011;40423;53.176;6.002;2023-07-30T04:15:24;25.20;;;6.25;;
54517;SDS011;40423;53.176;6.002;2023-07-30T04:17:50;20.95;;;5.50;;
54517;SDS011;40423;53.176;6.002;2023-07-30T04:20:16;19.13;;;5.15;;
54517;SDS011;40423;53.176;6.002;2023-07-30T04:22:43;23.73;;;5.43;;
54517;SDS011;40423;53.176;6.002;2023-07-30T04:25:09;22.70;;;4.32;;
54517;SDS011;40423;53.176;6.002;2023-07-30T04:27:38;17.92;;;4.53;;
54517;SDS011;40423;53.176;6.002;2023-07-30T04:30:07;14.73;;;3.83;;
54517;SDS011;40423;53.176;6.002;2023-07-30T04:32:33;15.95;;;3.65;;
54517;SDS011;40423;53.176;6.002;2023-07-30T04:34:59;13.30;;;3.40;;
54517;SDS011;40423;53.176;6.002;2023-07-30T04:37:26;11.27;;;3.83;;
54517;SDS011;40423;53.176;6.002;2023-07-30T04:39:51;10.95;;;3.38;;
54517;SDS011;40423;53.176;6.002;2023-07-30T04:42:17;10.18;;;2.90;;
54517;SDS011;40423;53.176;6.002;2023-07-30T04:44:43;17.95;;;3.55;;
54517;SDS011;40423;53.176;6.002;2023-07-30T04:47:09;10.50;;;3.28;;
54517;SDS011;40423;53.176;6.002;2023-07-30T04:49:34;12.73;;;2.72;;
54517;SDS011;40423;53.176;6.002;2023-07-30T04:52:02;11.07;;;2.35;;
54517;SDS011;40423;53.176;6.002;2023-07-30T04:54:28;10.60;;;3.25;;
54517;SDS011;40423;53.176;6.002;2023-07-30T04:56:54;12.02;;;2.88;;
54517;SDS011;40423;53.176;6.002;2023-07-30T04:59:20;12.85;;;2.42;;
54517;SDS011;40423;53.176;6.002;2023-07-30T05:01:45;9.52;;;2.67;;
54517;SDS011;40423;53.176;6.002;2023-07-30T05:04:11;9.90;;;2.28;;
54517;SDS011;40423;53.176;6.002;2023-07-30T05:06:37;12.25;;;2.85;;
54517;SDS011;40423;53.176;6.002;2023-07-30T05:09:02;11.00;;;2.40;;
54517;SDS011;40423;53.176;6.002;2023-07-30T05:11:28;14.27;;;3.20;;
54517;SDS011;40423;53.176;6.002;2023-07-30T05:13:54;9.82;;;2.20;;
54517;SDS011;40423;53.176;6.002;2023-07-30T05:16:20;10.68;;;2.05;;
54517;SDS011;40423;53.176;6.002;2023-07-30T05:18:45;14.48;;;2.60;;
54517;SDS011;40423;53.176;6.002;2023-07-30T05:21:12;8.05;;;2.13;;
54517;SDS011;40423;53.176;6.002;2023-07-30T05:23:37;12.65;;;2.30;;
54517;SDS011;40423;53.176;6.002;2023-07-30T05:26:03;11.15;;;2.58;;
54517;SDS011;40423;53.176;6.002;2023-07-30T05:28:29;11.43;;;2.97;;
54517;SDS011;40423;53.176;6.002;2023-07-30T05:30:54;7.70;;;2.85;;
54517;SDS011;40423;53.176;6.002;2023-07-30T05:33:20;13.18;;;2.80;;
54517;SDS011;40423;53.176;6.002;2023-07-30T05:35:46;11.23;;;2.72;;
54517;SDS011;40423;53.176;6.002;2023-07-30T05:38:13;9.88;;;2.08;;
54517;SDS011;40423;53.176;6.002;2023-07-30T05:40:38;14.18;;;3.15;;
54517;SDS011;40423;53.176;6.002;2023-07-30T05:43:06;10.48;;;2.83;;
54517;SDS011;40423;53.176;6.002;2023-07-30T05:45:33;10.88;;;3.13;;
54517;SDS011;40423;53.176;6.002;2023-07-30T05:47:59;11.48;;;2.30;;
54517;SDS011;40423;53.176;6.002;2023-07-30T05:50:25;10.73;;;2.10;;
54517;SDS011;40423;53.176;6.002;2023-07-30T05:52:50;10.95;;;2.75;;
54517;SDS011;40423;53.176;6.002;2023-07-30T05:55:16;8.80;;;2.33;;
54517;SDS011;40423;53.176;6.002;2023-07-30T05:57:42;12.43;;;3.05;;
54517;SDS011;40423;53.176;6.002;2023-07-30T06:00:08;10.48;;;2.30;;
54517;SDS011;40423;53.176;6.002;2023-07-30T06:02:34;17.02;;;3.00;;
54517;SDS011;40423;53.176;6.002;2023-07-30T06:04:59;9.15;;;2.40;;
54517;SDS011;40423;53.176;6.002;2023-07-30T06:07:25;22.20;;;3.88;;
54517;SDS011;40423;53.176;6.002;2023-07-30T06:09:51;12.60;;;2.90;;
54517;SDS011;40423;53.176;6.002;2023-07-30T06:12:16;12.60;;;2.75;;
54517;SDS011;40423;53.176;6.002;2023-07-30T06:14:42;9.25;;;2.97;;
54517;SDS011;40423;53.176;6.002;2023-07-30T06:17:08;21.17;;;4.63;;
54517;SDS011;40423;53.176;6.002;2023-07-30T06:19:34;10.80;;;2.55;;
54517;SDS011;40423;53.176;6.002;2023-07-30T06:21:59;14.80;;;4.32;;
54517;SDS011;40423;53.176;6.002;2023-07-30T06:24:25;14.50;;;2.97;;
54517;SDS011;40423;53.176;6.002;2023-07-30T06:26:51;13.88;;;3.17;;
54517;SDS011;40423;53.176;6.002;2023-07-30T06:29:16;12.98;;;3.25;;
54517;SDS011;40423;53.176;6.002;2023-07-30T06:31:42;14.18;;;2.92;;
54517;SDS011;40423;53.176;6.002;2023-07-30T06:34:08;11.90;;;3.08;;
54517;SDS011;40423;53.176;6.002;2023-07-30T06:36:33;11.48;;;2.90;;
54517;SDS011;40423;53.176;6.002;2023-07-30T06:38:59;11.95;;;3.03;;
54517;SDS011;40423;53.176;6.002;2023-07-30T06:41:25;11.77;;;2.60;;
54517;SDS011;40423;53.176;6.002;2023-07-30T06:43:51;10.40;;;2.85;;
54517;SDS011;40423;53.176;6.002;2023-07-30T06:46:16;14.25;;;3.53;;
54517;SDS011;40423;53.176;6.002;2023-07-30T06:48:42;11.40;;;2.78;;
54517;SDS011;40423;53.176;6.002;2023-07-30T06:51:09;12.30;;;3.60;;
54517;SDS011;40423;53.176;6.002;2023-07-30T06:53:35;13.18;;;3.85;;
54517;SDS011;40423;53.176;6.002;2023-07-30T06:56:00;11.00;;;2.65;;
54517;SDS011;40423;53.176;6.002;2023-07-30T06:58:26;13.43;;;3.03;;
54517;SDS011;40423;53.176;6.002;2023-07-30T07:00:52;16.05;;;3.53;;
54517;SDS011;40423;53.176;6.002;2023-07-30T07:03:17;11.23;;;2.83;;
54517;SDS011;40423;53.176;6.002;2023-07-30T07:05:43;12.52;;;3.38;;
54517;SDS011;40423;53.176;6.002;2023-07-30T07:08:09;13.82;;;4.10;;
54517;SDS011;40423;53.176;6.002;2023-07-30T07:10:34;16.92;;;2.92;;
54517;SDS011;40423;53.176;6.002;2023-07-30T07:13:00;11.05;;;3.00;;
54517;SDS011;40423;53.176;6.002;2023-07-30T07:15:26;15.32;;;2.83;;
54517;SDS011;40423;53.176;6.002;2023-07-30T07:17:51;11.75;;;2.88;;
54517;SDS011;40423;53.176;6.002;2023-07-30T07:20:17;9.30;;;2.78;;
54517;SDS011;40423;53.176;6.002;2023-07-30T07:22:43;10.45;;;2.60;;
54517;SDS011;40423;53.176;6.002;2023-07-30T07:25:09;9.82;;;2.50;;
54517;SDS011;40423;53.176;6.002;2023-07-30T07:27:35;9.85;;;2.20;;
54517;SDS011;40423;53.176;6.002;2023-07-30T07:30:00;12.40;;;2.83;;
54517;SDS011;40423;53.176;6.002;2023-07-30T07:32:26;8.77;;;2.83;;
54517;SDS011;40423;53.176;6.002;2023-07-30T07:34:52;7.90;;;2.60;;
54517;SDS011;40423;53.176;6.002;2023-07-30T07:37:18;11.35;;;2.75;;
54517;SDS011;40423;53.176;6.002;2023-07-30T07:39:44;17.55;;;3.00;;
54517;SDS011;40423;53.176;6.002;2023-07-30T07:42:11;11.23;;;2.67;;
54517;SDS011;40423;53.176;6.002;2023-07-30T07:44:37;11.65;;;2.85;;
54517;SDS011;40423;53.176;6.002;2023-07-30T07:47:02;11.48;;;2.47;;
54517;SDS011;40423;53.176;6.002;2023-07-30T07:49:28;13.77;;;2.78;;
54517;SDS011;40423;53.176;6.002;2023-07-30T07:51:54;10.93;;;3.08;;
54517;SDS011;40423;53.176;6.002;2023-07-30T07:54:20;11.15;;;3.13;;
54517;SDS011;40423;53.176;6.002;2023-07-30T07:56:46;13.25;;;3.35;;
54517;SDS011;40423;53.176;6.002;2023-07-30T07:59:11;15.35;;;3.35;;
54517;SDS011;40423;53.176;6.002;2023-07-30T08:01:37;15.38;;;3.08;;
54517;SDS011;40423;53.176;6.002;2023-07-30T08:04:03;10.50;;;3.20;;
54517;SDS011;40423;53.176;6.002;2023-07-30T08:06:29;11.60;;;2.85;;
54517;SDS011;40423;53.176;6.002;2023-07-30T08:08:56;12.80;;;3.28;;
54517;SDS011;40423;53.176;6.002;2023-07-30T08:11:22;13.13;;;2.50;;
54517;SDS011;40423;53.176;6.002;2023-07-30T08:13:48;16.40;;;3.53;;
54517;SDS011;40423;53.176;6.002;2023-07-30T08:16:13;10.95;;;3.08;;
54517;SDS011;40423;53.176;6.002;2023-07-30T08:18:39;15.10;;;3.10;;
54517;SDS011;40423;53.176;6.002;2023-07-30T08:21:05;15.40;;;2.85;;
54517;SDS011;40423;53.176;6.002;2023-07-30T08:23:30;10.95;;;3.13;;
54517;SDS011;40423;53.176;6.002;2023-07-30T08:25:56;11.32;;;2.42;;
54517;SDS011;40423;53.176;6.002;2023-07-30T08:28:22;15.45;;;3.20;;
54517;SDS011;40423;53.176;6.002;2023-07-30T08:30:47;8.98;;;2.63;;
54517;SDS011;40423;53.176;6.002;2023-07-30T08:33:13;11.10;;;2.33;;
54517;SDS011;40423;53.176;6.002;2023-07-30T08:35:39;10.68;;;2.70;;
54517;SDS011;40423;53.176;6.002;2023-07-30T08:38:04;14.15;;;3.50;;
54517;SDS011;40423;53.176;6.002;2023-07-30T08:40:31;11.18;;;2.70;;
54517;SDS011;40423;53.176;6.002;2023-07-30T08:42:57;10.55;;;2.60;;
54517;SDS011;40423;53.176;6.002;2023-07-30T08:45:23;10.30;;;2.90;;
54517;SDS011;40423;53.176;6.002;2023-07-30T08:47:49;13.77;;;3.03;;
54517;SDS011;40423;53.176;6.002;2023-07-30T08:50:14;7.78;;;2.00;;
54517;SDS011;40423;53.176;6.002;2023-07-30T08:52:40;6.47;;;2.00;;
54517;SDS011;40423;53.176;6.002;2023-07-30T08:55:07;14.25;;;3.83;;
54517;SDS011;40423;53.176;6.002;2023-07-30T08:57:34;7.65;;;2.05;;
54517;SDS011;40423;53.176;6.002;2023-07-30T09:00:02;13.90;;;3.15;;
54517;SDS011;40423;53.176;6.002;2023-07-30T09:05:09;11.80;;;3.13;;
54517;SDS011;40423;53.176;6.002;2023-07-30T09:07:35;12.65;;;3.33;;
54517;SDS011;40423;53.176;6.002;2023-07-30T09:10:01;12.68;;;3.03;;
54517;SDS011;40423;53.176;6.002;2023-07-30T09:12:30;13.73;;;4.07;;
54517;SDS011;40423;53.176;6.002;2023-07-30T09:14:58;9.63;;;2.92;;
54517;SDS011;40423;53.176;6.002;2023-07-30T09:17:24;13.13;;;3.15;;
54517;SDS011;40423;53.176;6.002;2023-07-30T09:19:51;10.05;;;3.00;;
54517;SDS011;40423;53.176;6.002;2023-07-30T09:22:24;11.15;;;2.78;;
54517;SDS011;40423;53.176;6.002;2023-07-30T09:24:54;10.02;;;2.63;;
54517;SDS011;40423;53.176;6.002;2023-07-30T09:27:21;7.65;;;2.92;;
54517;SDS011;40423;53.176;6.002;2023-07-30T09:29:57;7.95;;;2.28;;
54517;SDS011;40423;53.176;6.002;2023-07-30T09:32:27;10.50;;;2.22;;
54517;SDS011;40423;53.176;6.002;2023-07-30T09:37:32;10.65;;;2.80;;
54517;SDS011;40423;53.176;6.002;2023-07-30T09:40:02;14.73;;;2.95;;
54517;SDS011;40423;53.176;6.002;2023-07-30T09:42:29;10.68;;;3.15;;
54517;SDS011;40423;53.176;6.002;2023-07-30T09:44:58;11.05;;;2.28;;
54517;SDS011;40423;53.176;6.002;2023-07-30T09:47:26;9.63;;;2.40;;
54517;SDS011;40423;53.176;6.002;2023-07-30T09:49:52;7.60;;;2.80;;
54517;SDS011;40423;53.176;6.002;2023-07-30T09:52:20;12.50;;;2.67;;
54517;SDS011;40423;53.176;6.002;2023-07-30T09:54:49;9.27;;;2.40;;
54517;SDS011;40423;53.176;6.002;2023-07-30T09:57:17;13.00;;;2.42;;
54517;SDS011;40423;53.176;6.002;2023-07-30T09:59:42;8.00;;;2.45;;
54517;SDS011;40423;53.176;6.002;2023-07-30T10:02:08;11.93;;;2.70;;
54517;SDS011;40423;53.176;6.002;2023-07-30T10:04:37;12.15;;;3.15;;
54517;SDS011;40423;53.176;6.002;2023-07-30T10:07:09;11.38;;;2.97;;
54517;SDS011;40423;53.176;6.002;2023-07-30T10:09:40;9.02;;;2.65;;
54517;SDS011;40423;53.176;6.002;2023-07-30T10:12:13;11.73;;;2.38;;
54517;SDS011;40423;53.176;6.002;2023-07-30T10:14:42;9.77;;;2.28;;
54517;SDS011;40423;53.176;6.002;2023-07-30T10:17:09;9.18;;;2.40;;
54517;SDS011;40423;53.176;6.002;2023-07-30T10:19:35;9.10;;;2.90;;
54517;SDS011;40423;53.176;6.002;2023-07-30T10:24:39;11.40;;;2.38;;
54517;SDS011;40423;53.176;6.002;2023-07-30T10:27:09;10.40;;;2.80;;
54517;SDS011;40423;53.176;6.002;2023-07-30T10:29:41;11.32;;;2.55;;
54517;SDS011;40423;53.176;6.002;2023-07-30T10:32:06;12.45;;;3.03;;
54517;SDS011;40423;53.176;6.002;2023-07-30T10:35:06;8.43;;;2.35;;
54517;SDS011;40423;53.176;6.002;2023-07-30T10:37:25;9.27;;;2.30;;
54517;SDS011;40423;53.176;6.002;2023-07-30T10:39:51;11.63;;;2.45;;
54517;SDS011;40423;53.176;6.002;2023-07-30T10:42:17;11.70;;;2.50;;
54517;SDS011;40423;53.176;6.002;2023-07-30T10:44:46;9.45;;;2.42;;
54517;SDS011;40423;53.176;6.002;2023-07-30T10:47:12;10.48;;;3.00;;
54517;SDS011;40423;53.176;6.002;2023-07-30T10:49:38;12.48;;;2.53;;
54517;SDS011;40423;53.176;6.002;2023-07-30T10:52:05;6.75;;;2.13;;
54517;SDS011;40423;53.176;6.002;2023-07-30T10:54:35;8.70;;;2.10;;
54517;SDS011;40423;53.176;6.002;2023-07-30T10:57:02;10.75;;;2.05;;
54517;SDS011;40423;53.176;6.002;2023-07-30T10:59:37;9.43;;;2.70;;
54517;SDS011;40423;53.176;6.002;2023-07-30T11:02:03;12.38;;;2.50;;
54517;SDS011;40423;53.176;6.002;2023-07-30T11:04:33;11.20;;;2.45;;
54517;SDS011;40423;53.176;6.002;2023-07-30T11:07:00;11.38;;;2.60;;
54517;SDS011;40423;53.176;6.002;2023-07-30T11:09:26;12.68;;;2.88;;
54517;SDS011;40423;53.176;6.002;2023-07-30T11:11:54;9.10;;;2.42;;
54517;SDS011;40423;53.176;6.002;2023-07-30T11:14:21;10.20;;;2.17;;
54517;SDS011;40423;53.176;6.002;2023-07-30T11:16:57;9.35;;;3.03;;
54517;SDS011;40423;53.176;6.002;2023-07-30T11:19:24;11.85;;;2.75;;
54517;SDS011;40423;53.176;6.002;2023-07-30T11:21:55;9.55;;;2.20;;
54517;SDS011;40423;53.176;6.002;2023-07-30T11:24:22;12.45;;;2.22;;
54517;SDS011;40423;53.176;6.002;2023-07-30T11:26:58;6.80;;;1.70;;
54517;SDS011;40423;53.176;6.002;2023-07-30T11:29:25;6.53;;;1.80;;
54517;SDS011;40423;53.176;6.002;2023-07-30T11:31:51;8.05;;;2.13;;
54517;SDS011;40423;53.176;6.002;2023-07-30T11:34:20;8.45;;;2.30;;
54517;SDS011;40423;53.176;6.002;2023-07-30T11:36:46;5.28;;;1.63;;
54517;SDS011;40423;53.176;6.002;2023-07-30T11:39:12;10.27;;;2.30;;
54517;SDS011;40423;53.176;6.002;2023-07-30T11:41:37;10.23;;;1.90;;
54517;SDS011;40423;53.176;6.002;2023-07-30T11:44:04;9.45;;;2.25;;
54517;SDS011;40423;53.176;6.002;2023-07-30T11:46:29;9.25;;;2.33;;
54517;SDS011;40423;53.176;6.002;2023-07-30T11:49:14;9.32;;;2.33;;
54517;SDS011;40423;53.176;6.002;2023-07-30T11:51:42;7.35;;;2.15;;
54517;SDS011;40423;53.176;6.002;2023-07-30T11:54:17;9.48;;;1.98;;
54517;SDS011;40423;53.176;6.002;2023-07-30T11:56:47;9.45;;;2.88;;
54517;SDS011;40423;53.176;6.002;2023-07-30T11:59:20;11.25;;;2.50;;
54517;SDS011;40423;53.176;6.002;2023-07-30T12:01:46;9.85;;;2.05;;
54517;SDS011;40423;53.176;6.002;2023-07-30T12:04:12;9.27;;;2.22;;
54517;SDS011;40423;53.176;6.002;2023-07-30T12:06:56;7.05;;;1.63;;
54517;SDS011;40423;53.176;6.002;2023-07-30T12:14:24;7.45;;;1.45;;
54517;SDS011;40423;53.176;6.002;2023-07-30T12:16:55;4.85;;;1.48;;
54517;SDS011;40423;53.176;6.002;2023-07-30T12:19:26;8.57;;;1.95;;
54517;SDS011;40423;53.176;6.002;2023-07-30T12:21:52;6.30;;;2.30;;
54517;SDS011;40423;53.176;6.002;2023-07-30T12:24:18;5.20;;;1.60;;
54517;SDS011;40423;53.176;6.002;2023-07-30T12:26:44;6.72;;;1.55;;
54517;SDS011;40423;53.176;6.002;2023-07-30T12:29:10;6.82;;;1.73;;
54517;SDS011;40423;53.176;6.002;2023-07-30T12:31:35;8.18;;;1.90;;
54517;SDS011;40423;53.176;6.002;2023-07-30T12:34:01;10.98;;;1.90;;
54517;SDS011;40423;53.176;6.002;2023-07-30T12:36:28;8.00;;;1.50;;
54517;SDS011;40423;53.176;6.002;2023-07-30T12:38:53;6.72;;;2.13;;
54517;SDS011;40423;53.176;6.002;2023-07-30T12:41:22;7.57;;;1.63;;
54517;SDS011;40423;53.176;6.002;2023-07-30T12:43:54;8.60;;;2.55;;
54517;SDS011;40423;53.176;6.002;2023-07-30T12:46:24;7.47;;;1.77;;
54517;SDS011;40423;53.176;6.002;2023-07-30T12:48:55;9.63;;;1.95;;
54517;SDS011;40423;53.176;6.002;2023-07-30T12:51:21;8.43;;;2.40;;
54517;SDS011;40423;53.176;6.002;2023-07-30T12:53:47;9.10;;;2.20;;
54517;SDS011;40423;53.176;6.002;2023-07-30T12:56:14;6.70;;;1.95;;
54517;SDS011;40423;53.176;6.002;2023-07-30T12:58:43;8.30;;;2.05;;
54517;SDS011;40423;53.176;6.002;2023-07-30T13:01:09;7.47;;;2.28;;
54517;SDS011;40423;53.176;6.002;2023-07-30T13:03:35;6.38;;;1.40;;
54517;SDS011;40423;53.176;6.002;2023-07-30T13:06:01;13.25;;;2.92;;
54517;SDS011;40423;53.176;6.002;2023-07-30T13:08:27;6.60;;;1.80;;
54517;SDS011;40423;53.176;6.002;2023-07-30T13:10:53;6.13;;;1.38;;
54517;SDS011;40423;53.176;6.002;2023-07-30T13:13:18;6.32;;;1.45;;
54517;SDS011;40423;53.176;6.002;2023-07-30T13:15:44;7.07;;;2.08;;
54517;SDS011;40423;53.176;6.002;2023-07-30T13:18:10;7.45;;;1.42;;
54517;SDS011;40423;53.176;6.002;2023-07-30T13:20:36;6.57;;;1.48;;
54517;SDS011;40423;53.176;6.002;2023-07-30T13:23:01;5.45;;;1.67;;
54517;SDS011;40423;53.176;6.002;2023-07-30T13:25:27;8.35;;;1.77;;
54517;SDS011;40423;53.176;6.002;2023-07-30T13:27:53;6.57;;;1.73;;
54517;SDS011;40423;53.176;6.002;2023-07-30T13:30:19;7.10;;;1.60;;
54517;SDS011;40423;53.176;6.002;2023-07-30T13:32:45;4.43;;;1.33;;
54517;SDS011;40423;53.176;6.002;2023-07-30T13:35:10;5.28;;;1.70;;
54517;SDS011;40423;53.176;6.002;2023-07-30T13:37:36;6.60;;;1.90;;
54517;SDS011;40423;53.176;6.002;2023-07-30T13:40:02;8.43;;;1.70;;
54517;SDS011;40423;53.176;6.002;2023-07-30T13:42:28;8.50;;;1.88;;
54517;SDS011;40423;53.176;6.002;2023-07-30T13:44:54;5.18;;;1.20;;
54517;SDS011;40423;53.176;6.002;2023-07-30T13:47:19;7.18;;;2.13;;
54517;SDS011;40423;53.176;6.002;2023-07-30T13:49:45;7.45;;;2.17;;
54517;SDS011;40423;53.176;6.002;2023-07-30T13:52:12;5.35;;;1.60;;
54517;SDS011;40423;53.176;6.002;2023-07-30T13:54:38;6.82;;;1.55;;
54517;SDS011;40423;53.176;6.002;2023-07-30T13:57:05;5.70;;;1.58;;
54517;SDS011;40423;53.176;6.002;2023-07-30T13:59:31;5.82;;;1.42;;
54517;SDS011;40423;53.176;6.002;2023-07-30T14:01:56;7.50;;;1.70;;
54517;SDS011;40423;53.176;6.002;2023-07-30T14:04:22;7.68;;;2.10;;
54517;SDS011;40423;53.176;6.002;2023-07-30T14:06:48;5.20;;;1.60;;
54517;SDS011;40423;53.176;6.002;2023-07-30T14:09:13;7.47;;;1.48;;
54517;SDS011;40423;53.176;6.002;2023-07-30T14:11:39;8.30;;;1.63;;
54517;SDS011;40423;53.176;6.002;2023-07-30T14:14:08;8.45;;;2.05;;
54517;SDS011;40423;53.176;6.002;2023-07-30T14:16:36;8.02;;;1.83;;
54517;SDS011;40423;53.176;6.002;2023-07-30T14:19:02;6.85;;;1.40;;
54517;SDS011;40423;53.176;6.002;2023-07-30T14:21:28;6.00;;;2.03;;
54517;SDS011;40423;53.176;6.002;2023-07-30T14:23:53;7.25;;;1.67;;
54517;SDS011;40423;53.176;6.002;2023-07-30T14:26:19;7.18;;;1.42;;
54517;SDS011;40423;53.176;6.002;2023-07-30T14:28:45;4.88;;;1.25;;
54517;SDS011;40423;53.176;6.002;2023-07-30T14:31:11;8.85;;;2.13;;
54517;SDS011;40423;53.176;6.002;2023-07-30T14:33:36;7.88;;;1.92;;
54517;SDS011;40423;53.176;6.002;2023-07-30T14:36:03;7.95;;;1.95;;
54517;SDS011;40423;53.176;6.002;2023-07-30T14:38:29;6.88;;;1.80;;
54517;SDS011;40423;53.176;6.002;2023-07-30T14:40:56;8.20;;;1.80;;
54517;SDS011;40423;53.176;6.002;2023-07-30T14:43:22;7.10;;;2.17;;
54517;SDS011;40423;53.176;6.002;2023-07-30T14:45:48;7.38;;;2.45;;
54517;SDS011;40423;53.176;6.002;2023-07-30T14:48:14;5.97;;;2.17;;